sensor_id;sensor_type;location;lat;lon;timestamp;pressure;altitude;pressure_sealevel;temperature;humidity
22572;BME280;11452;53.368;14.658;2023-02-17T00:04:20;101255.28;;;8.42;77.25
22572;BME280;11452;53.368;14.658;2023-02-17T00:09:25;101249.50;;;8.43;77.42
22572;BME280;11452;53.368;14.658;2023-02-17T00:14:31;101241.91;;;8.44;77.57
22572;BME280;11452;53.368;14.658;2023-02-17T00:19:37;101230.16;;;8.49;77.54
22572;BME280;11452;53.368;14.658;2023-02-17T00:24:42;101233.17;;;8.40;77.44
22572;BME280;11452;53.368;14.658;2023-02-17T00:29:48;101224.66;;;8.42;77.41
22572;BME280;11452;53.368;14.658;2023-02-17T00:34:53;101225.88;;;8.45;77.56
22572;BME280;11452;53.368;14.658;2023-02-17T00:40:00;101217.94;;;8.44;77.49
22572;BME280;11452;53.368;14.658;2023-02-17T00:45:08;101211.05;;;8.50;77.66
22572;BME280;11452;53.368;14.658;2023-02-17T00:50:14;101198.71;;;8.47;77.48
22572;BME280;11452;53.368;14.658;2023-02-17T00:55:19;101206.30;;;8.46;77.71
22572;BME280;11452;53.368;14.658;2023-02-17T01:00:25;101196.17;;;8.44;77.73
22572;BME280;11452;53.368;14.658;2023-02-17T01:05:31;101200.56;;;8.45;77.85
22572;BME280;11452;53.368;14.658;2023-02-17T01:10:37;101204.80;;;8.39;78.53
22572;BME280;11452;53.368;14.658;2023-02-17T01:15:46;101187.19;;;8.35;79.01
22572;BME280;11452;53.368;14.658;2023-02-17T01:20:52;101186.67;;;8.37;79.41
22572;BME280;11452;53.368;14.658;2023-02-17T01:25:58;101183.66;;;8.46;79.62
22572;BME280;11452;53.368;14.658;2023-02-17T01:31:08;101182.45;;;8.43;79.57
22572;BME280;11452;53.368;14.658;2023-02-17T01:36:16;101174.33;;;8.46;80.27
22572;BME280;11452;53.368;14.658;2023-02-17T01:41:25;101170.28;;;8.48;80.24
22572;BME280;11452;53.368;14.658;2023-02-17T01:46:35;101161.64;;;8.53;80.41
22572;BME280;11452;53.368;14.658;2023-02-17T01:51:41;101152.11;;;8.57;80.44
22572;BME280;11452;53.368;14.658;2023-02-17T01:56:48;101140.64;;;8.55;80.67
22572;BME280;11452;53.368;14.658;2023-02-17T02:01:58;101127.48;;;8.52;80.90
22572;BME280;11452;53.368;14.658;2023-02-17T02:07:09;101124.66;;;8.45;81.30
22572;BME280;11452;53.368;14.658;2023-02-17T02:12:32;101109.78;;;8.40;81.59
22572;BME280;11452;53.368;14.658;2023-02-17T02:18:00;101090.15;;;8.42;82.07
22572;BME280;11452;53.368;14.658;2023-02-17T02:33:52;101058.34;;;8.27;82.65
22572;BME280;11452;53.368;14.658;2023-02-17T02:39:03;101051.74;;;8.26;83.05
22572;BME280;11452;53.368;14.658;2023-02-17T02:44:12;101030.56;;;8.23;83.51
22572;BME280;11452;53.368;14.658;2023-02-17T02:49:18;101024.72;;;8.25;83.94
22572;BME280;11452;53.368;14.658;2023-02-17T02:54:50;101010.72;;;8.20;84.19
22572;BME280;11452;53.368;14.658;2023-02-17T03:00:19;101017.72;;;8.22;84.31
22572;BME280;11452;53.368;14.658;2023-02-17T03:10:45;100987.91;;;8.14;84.79
22572;BME280;11452;53.368;14.658;2023-02-17T03:15:51;100982.09;;;8.05;85.31
22572;BME280;11452;53.368;14.658;2023-02-17T03:21:05;100979.92;;;8.14;85.52
22572;BME280;11452;53.368;14.658;2023-02-17T03:26:08;100978.19;;;8.13;85.52
22572;BME280;11452;53.368;14.658;2023-02-17T03:31:15;100971.19;;;8.11;85.72
22572;BME280;11452;53.368;14.658;2023-02-17T03:36:20;100964.80;;;8.25;86.07
22572;BME280;11452;53.368;14.658;2023-02-17T03:41:26;100964.47;;;8.22;86.08
22572;BME280;11452;53.368;14.658;2023-02-17T03:46:32;100960.01;;;8.23;85.90
22572;BME280;11452;53.368;14.658;2023-02-17T03:51:38;100951.30;;;8.29;86.15
22572;BME280;11452;53.368;14.658;2023-02-17T03:56:44;100946.04;;;8.28;86.21
22572;BME280;11452;53.368;14.658;2023-02-17T04:01:49;100935.64;;;8.22;86.17
22572;BME280;11452;53.368;14.658;2023-02-17T04:06:55;100936.64;;;8.19;86.63
22572;BME280;11452;53.368;14.658;2023-02-17T04:12:00;100938.18;;;8.25;86.85
22572;BME280;11452;53.368;14.658;2023-02-17T04:17:06;100915.08;;;8.25;87.11
22572;BME280;11452;53.368;14.658;2023-02-17T04:22:12;100906.62;;;8.26;87.11
22572;BME280;11452;53.368;14.658;2023-02-17T04:27:17;100898.24;;;8.25;87.64
22572;BME280;11452;53.368;14.658;2023-02-17T04:32:23;100880.66;;;8.21;87.63
22572;BME280;11452;53.368;14.658;2023-02-17T04:37:28;100869.35;;;8.26;88.04
22572;BME280;11452;53.368;14.658;2023-02-17T04:42:34;100862.63;;;8.27;88.28
22572;BME280;11452;53.368;14.658;2023-02-17T04:47:40;100853.84;;;8.25;88.42
22572;BME280;11452;53.368;14.658;2023-02-17T04:52:46;100867.37;;;8.11;89.25
22572;BME280;11452;53.368;14.658;2023-02-17T04:57:51;100873.73;;;8.17;89.53
22572;BME280;11452;53.368;14.658;2023-02-17T05:02:57;100876.80;;;8.18;89.71
22572;BME280;11452;53.368;14.658;2023-02-17T05:08:03;100877.87;;;8.24;90.14
22572;BME280;11452;53.368;14.658;2023-02-17T05:13:08;100879.14;;;8.25;90.34
22572;BME280;11452;53.368;14.658;2023-02-17T05:18:14;100892.19;;;8.31;90.68
22572;BME280;11452;53.368;14.658;2023-02-17T05:23:20;100871.95;;;8.27;90.74
22572;BME280;11452;53.368;14.658;2023-02-17T05:28:25;100868.82;;;8.28;90.94
22572;BME280;11452;53.368;14.658;2023-02-17T05:33:31;100863.16;;;8.36;91.04
22572;BME280;11452;53.368;14.658;2023-02-17T05:38:37;100859.17;;;8.46;91.21
22572;BME280;11452;53.368;14.658;2023-02-17T05:43:44;100835.66;;;8.45;90.95
22572;BME280;11452;53.368;14.658;2023-02-17T05:48:50;100844.52;;;8.46;91.19
22572;BME280;11452;53.368;14.658;2023-02-17T05:53:56;100843.72;;;8.44;91.28
22572;BME280;11452;53.368;14.658;2023-02-17T05:59:01;100840.66;;;8.43;91.41
22572;BME280;11452;53.368;14.658;2023-02-17T06:04:07;100833.20;;;8.51;91.51
22572;BME280;11452;53.368;14.658;2023-02-17T06:09:14;100826.22;;;8.67;93.15
22572;BME280;11452;53.368;14.658;2023-02-17T06:14:19;100814.30;;;9.29;93.58
22572;BME280;11452;53.368;14.658;2023-02-17T06:19:25;100807.28;;;9.45;92.49
22572;BME280;11452;53.368;14.658;2023-02-17T06:24:31;100794.88;;;9.61;91.50
22572;BME280;11452;53.368;14.658;2023-02-17T06:29:36;100789.59;;;9.68;91.09
22572;BME280;11452;53.368;14.658;2023-02-17T06:34:42;100779.95;;;9.66;89.81
22572;BME280;11452;53.368;14.658;2023-02-17T06:39:48;100777.98;;;9.18;88.55
22572;BME280;11452;53.368;14.658;2023-02-17T06:44:53;100777.91;;;8.92;89.21
22572;BME280;11452;53.368;14.658;2023-02-17T06:49:59;100777.38;;;8.85;89.94
22572;BME280;11452;53.368;14.658;2023-02-17T06:55:04;100762.50;;;8.90;90.17
22572;BME280;11452;53.368;14.658;2023-02-17T07:00:11;100765.52;;;8.82;90.33
22572;BME280;11452;53.368;14.658;2023-02-17T07:05:17;100753.89;;;8.75;90.85
22572;BME280;11452;53.368;14.658;2023-02-17T07:10:22;100752.48;;;8.76;91.29
22572;BME280;11452;53.368;14.658;2023-02-17T07:15:28;100749.09;;;8.73;91.45
22572;BME280;11452;53.368;14.658;2023-02-17T07:20:33;100757.06;;;8.83;92.12
22572;BME280;11452;53.368;14.658;2023-02-17T07:25:42;100739.59;;;8.86;92.17
22572;BME280;11452;53.368;14.658;2023-02-17T07:30:48;100742.88;;;8.91;92.28
22572;BME280;11452;53.368;14.658;2023-02-17T07:35:54;100750.25;;;8.86;92.41
22572;BME280;11452;53.368;14.658;2023-02-17T07:41:14;100749.71;;;8.88;92.65
22572;BME280;11452;53.368;14.658;2023-02-17T07:46:14;100745.39;;;8.94;92.92
22572;BME280;11452;53.368;14.658;2023-02-17T07:51:21;100737.17;;;8.98;92.92
22572;BME280;11452;53.368;14.658;2023-02-17T07:56:27;100743.15;;;9.03;92.93
22572;BME280;11452;53.368;14.658;2023-02-17T08:01:33;100736.95;;;9.03;93.11
22572;BME280;11452;53.368;14.658;2023-02-17T08:06:39;100728.48;;;9.12;93.32
22572;BME280;11452;53.368;14.658;2023-02-17T08:11:44;100730.20;;;9.13;93.18
22572;BME280;11452;53.368;14.658;2023-02-17T08:17:07;100716.58;;;9.19;94.15
22572;BME280;11452;53.368;14.658;2023-02-17T08:22:13;100712.97;;;9.20;93.49
22572;BME280;11452;53.368;14.658;2023-02-17T08:27:19;100708.66;;;9.18;93.90
22572;BME280;11452;53.368;14.658;2023-02-17T08:32:25;100695.33;;;9.26;94.10
22572;BME280;11452;53.368;14.658;2023-02-17T08:37:30;100676.80;;;9.32;93.94
22572;BME280;11452;53.368;14.658;2023-02-17T08:42:36;100680.40;;;9.31;93.90
22572;BME280;11452;53.368;14.658;2023-02-17T08:47:42;100660.33;;;9.41;94.33
22572;BME280;11452;53.368;14.658;2023-02-17T08:52:48;100657.70;;;9.48;94.11
22572;BME280;11452;53.368;14.658;2023-02-17T08:57:53;100659.51;;;9.48;93.96
22572;BME280;11452;53.368;14.658;2023-02-17T09:02:59;100638.32;;;9.53;94.30
22572;BME280;11452;53.368;14.658;2023-02-17T09:08:04;100623.41;;;9.58;94.49
22572;BME280;11452;53.368;14.658;2023-02-17T09:13:10;100618.89;;;9.67;94.18
22572;BME280;11452;53.368;14.658;2023-02-17T09:18:16;100605.30;;;9.71;94.37
22572;BME280;11452;53.368;14.658;2023-02-17T09:23:22;100588.27;;;9.74;94.25
22572;BME280;11452;53.368;14.658;2023-02-17T09:28:27;100574.53;;;9.73;94.13
22572;BME280;11452;53.368;14.658;2023-02-17T09:33:33;100578.70;;;9.86;94.48
22572;BME280;11452;53.368;14.658;2023-02-17T09:38:39;100571.87;;;9.89;94.37
22572;BME280;11452;53.368;14.658;2023-02-17T09:43:45;100561.24;;;9.96;94.34
22572;BME280;11452;53.368;14.658;2023-02-17T09:48:54;100558.77;;;9.84;94.19
22572;BME280;11452;53.368;14.658;2023-02-17T09:59:13;100539.81;;;10.04;94.47
22572;BME280;11452;53.368;14.658;2023-02-17T10:04:23;100547.66;;;10.07;94.26
22572;BME280;11452;53.368;14.658;2023-02-17T10:09:35;100533.61;;;10.04;94.18
22572;BME280;11452;53.368;14.658;2023-02-17T10:14:58;100518.53;;;9.96;94.04
22572;BME280;11452;53.368;14.658;2023-02-17T10:20:08;100517.59;;;10.04;94.60
22572;BME280;11452;53.368;14.658;2023-02-17T10:25:20;100497.09;;;10.04;94.37
22572;BME280;11452;53.368;14.658;2023-02-17T10:30:39;100483.45;;;10.02;94.67
22572;BME280;11452;53.368;14.658;2023-02-17T10:35:58;100482.11;;;10.02;94.97
22572;BME280;11452;53.368;14.658;2023-02-17T10:41:03;100462.59;;;10.01;94.77
22572;BME280;11452;53.368;14.658;2023-02-17T10:46:11;100460.10;;;10.05;95.16
22572;BME280;11452;53.368;14.658;2023-02-17T10:51:27;100443.31;;;10.03;95.03
22572;BME280;11452;53.368;14.658;2023-02-17T10:56:32;100418.54;;;10.08;95.23
22572;BME280;11452;53.368;14.658;2023-02-17T11:01:36;100395.94;;;10.07;95.53
22572;BME280;11452;53.368;14.658;2023-02-17T11:06:49;100377.72;;;10.06;95.69
22572;BME280;11452;53.368;14.658;2023-02-17T11:12:05;100355.41;;;10.07;96.10
22572;BME280;11452;53.368;14.658;2023-02-17T11:17:28;100328.91;;;10.12;95.99
22572;BME280;11452;53.368;14.658;2023-02-17T11:22:37;100325.56;;;10.08;96.23
22572;BME280;11452;53.368;14.658;2023-02-17T11:27:52;100326.23;;;10.12;96.16
22572;BME280;11452;53.368;14.658;2023-02-17T11:33:09;100298.80;;;10.24;96.62
22572;BME280;11452;53.368;14.658;2023-02-17T11:38:17;100278.17;;;10.12;96.30
22572;BME280;11452;53.368;14.658;2023-02-17T11:43:24;100271.14;;;10.25;96.72
22572;BME280;11452;53.368;14.658;2023-02-17T11:48:56;100244.37;;;10.19;96.43
22572;BME280;11452;53.368;14.658;2023-02-17T12:10:08;100186.54;;;10.25;96.99
22572;BME280;11452;53.368;14.658;2023-02-17T12:15:28;100160.88;;;10.23;97.13
22572;BME280;11452;53.368;14.658;2023-02-17T12:36:32;100115.77;;;10.32;97.32
22572;BME280;11452;53.368;14.658;2023-02-17T12:41:44;100108.23;;;10.32;97.65
22572;BME280;11452;53.368;14.658;2023-02-17T12:47:01;100094.73;;;10.40;97.43
22572;BME280;11452;53.368;14.658;2023-02-17T12:52:18;100068.39;;;10.41;97.67
22572;BME280;11452;53.368;14.658;2023-02-17T12:57:33;100107.11;;;10.49;97.79
22572;BME280;11452;53.368;14.658;2023-02-17T13:02:36;100089.62;;;10.57;97.75
22572;BME280;11452;53.368;14.658;2023-02-17T13:07:58;100088.30;;;10.57;97.57
22572;BME280;11452;53.368;14.658;2023-02-17T13:13:25;100085.57;;;10.64;97.66
22572;BME280;11452;53.368;14.658;2023-02-17T13:18:27;100076.88;;;10.68;97.60
22572;BME280;11452;53.368;14.658;2023-02-17T13:23:36;100067.04;;;10.68;97.65
22572;BME280;11452;53.368;14.658;2023-02-17T13:28:44;100059.68;;;10.72;97.86
22572;BME280;11452;53.368;14.658;2023-02-17T13:33:55;100070.41;;;10.78;97.97
22572;BME280;11452;53.368;14.658;2023-02-17T13:49:38;100046.05;;;10.95;97.38
22572;BME280;11452;53.368;14.658;2023-02-17T13:54:52;100026.52;;;10.94;97.50
22572;BME280;11452;53.368;14.658;2023-02-17T14:00:15;100013.72;;;11.05;97.44
22572;BME280;11452;53.368;14.658;2023-02-17T14:06:20;100015.59;;;11.10;97.13
22572;BME280;11452;53.368;14.658;2023-02-17T14:10:35;100016.11;;;11.15;97.21
22572;BME280;11452;53.368;14.658;2023-02-17T14:15:53;100022.69;;;11.17;96.90
22572;BME280;11452;53.368;14.658;2023-02-17T14:21:08;100017.41;;;11.22;96.94
22572;BME280;11452;53.368;14.658;2023-02-17T14:31:45;99999.72;;;11.32;96.72
22572;BME280;11452;53.368;14.658;2023-02-17T14:36:52;100005.12;;;11.38;96.73
22572;BME280;11452;53.368;14.658;2023-02-17T14:41:58;99990.20;;;11.41;96.68
22572;BME280;11452;53.368;14.658;2023-02-17T14:47:03;99988.42;;;11.47;96.60
22572;BME280;11452;53.368;14.658;2023-02-17T14:52:20;99983.34;;;11.50;96.65
22572;BME280;11452;53.368;14.658;2023-02-17T14:57:27;99955.48;;;11.52;96.65
22572;BME280;11452;53.368;14.658;2023-02-17T15:02:33;99977.41;;;11.57;96.68
22572;BME280;11452;53.368;14.658;2023-02-17T15:07:39;99970.40;;;11.62;96.83
22572;BME280;11452;53.368;14.658;2023-02-17T15:12:45;99983.45;;;11.66;97.08
22572;BME280;11452;53.368;14.658;2023-02-17T15:17:51;99984.05;;;11.64;96.88
22572;BME280;11452;53.368;14.658;2023-02-17T15:22:57;99972.16;;;11.68;97.36
22572;BME280;11452;53.368;14.658;2023-02-17T15:28:02;99983.83;;;11.67;97.41
22572;BME280;11452;53.368;14.658;2023-02-17T15:33:10;99958.03;;;11.66;97.70
22572;BME280;11452;53.368;14.658;2023-02-17T15:38:16;99940.14;;;11.67;97.72
22572;BME280;11452;53.368;14.658;2023-02-17T15:43:22;99936.98;;;11.67;97.92
22572;BME280;11452;53.368;14.658;2023-02-17T15:48:28;99934.31;;;11.73;97.94
22572;BME280;11452;53.368;14.658;2023-02-17T15:53:35;99900.59;;;11.70;97.80
22572;BME280;11452;53.368;14.658;2023-02-17T15:58:40;99911.38;;;11.76;97.54
22572;BME280;11452;53.368;14.658;2023-02-17T16:03:46;99902.27;;;11.78;97.23
22572;BME280;11452;53.368;14.658;2023-02-17T16:08:53;99900.44;;;11.79;96.99
22572;BME280;11452;53.368;14.658;2023-02-17T16:14:00;99899.47;;;11.80;96.94
22572;BME280;11452;53.368;14.658;2023-02-17T16:19:09;99902.03;;;11.82;96.88
22572;BME280;11452;53.368;14.658;2023-02-17T16:24:15;99890.70;;;11.78;96.94
22572;BME280;11452;53.368;14.658;2023-02-17T16:29:21;99910.23;;;11.73;96.91
22572;BME280;11452;53.368;14.658;2023-02-17T16:34:27;99894.34;;;11.77;96.94
22572;BME280;11452;53.368;14.658;2023-02-17T16:39:35;99908.29;;;11.75;97.15
22572;BME280;11452;53.368;14.658;2023-02-17T16:44:42;99911.56;;;11.73;97.38
22572;BME280;11452;53.368;14.658;2023-02-17T16:49:47;99921.30;;;11.74;97.26
22572;BME280;11452;53.368;14.658;2023-02-17T16:54:53;99913.86;;;11.66;97.58
22572;BME280;11452;53.368;14.658;2023-02-17T16:59:59;99956.05;;;11.63;97.49
22572;BME280;11452;53.368;14.658;2023-02-17T17:05:05;99961.73;;;11.58;97.14
22572;BME280;11452;53.368;14.658;2023-02-17T17:10:20;99968.20;;;11.43;95.84
22572;BME280;11452;53.368;14.658;2023-02-17T17:15:21;99971.02;;;11.29;94.39
22572;BME280;11452;53.368;14.658;2023-02-17T17:20:29;99963.27;;;11.19;93.22
22572;BME280;11452;53.368;14.658;2023-02-17T17:25:37;99969.17;;;11.11;92.35
22572;BME280;11452;53.368;14.658;2023-02-17T17:30:44;99946.70;;;11.01;91.48
22572;BME280;11452;53.368;14.658;2023-02-17T17:35:49;99978.10;;;11.04;90.25
22572;BME280;11452;53.368;14.658;2023-02-17T17:40:57;99992.33;;;11.05;89.52
22572;BME280;11452;53.368;14.658;2023-02-17T17:46:04;100005.53;;;11.01;88.38
22572;BME280;11452;53.368;14.658;2023-02-17T17:51:14;99994.77;;;10.95;87.53
22572;BME280;11452;53.368;14.658;2023-02-17T17:56:26;100028.53;;;10.91;87.09
22572;BME280;11452;53.368;14.658;2023-02-17T18:01:32;100048.41;;;10.87;86.93
22572;BME280;11452;53.368;14.658;2023-02-17T18:06:40;100066.02;;;10.76;86.29
22572;BME280;11452;53.368;14.658;2023-02-17T18:11:47;100078.59;;;10.69;85.75
22572;BME280;11452;53.368;14.658;2023-02-17T18:16:54;100095.95;;;10.69;85.17
22572;BME280;11452;53.368;14.658;2023-02-17T18:22:01;100077.69;;;10.36;81.66
22572;BME280;11452;53.368;14.658;2023-02-17T18:27:07;100075.17;;;10.20;80.26
22572;BME280;11452;53.368;14.658;2023-02-17T18:32:12;100085.55;;;10.11;79.23
22572;BME280;11452;53.368;14.658;2023-02-17T18:37:18;100110.34;;;10.05;78.15
22572;BME280;11452;53.368;14.658;2023-02-17T18:42:24;100121.72;;;9.95;76.15
22572;BME280;11452;53.368;14.658;2023-02-17T18:47:29;100113.14;;;9.90;76.07
22572;BME280;11452;53.368;14.658;2023-02-17T18:52:37;100144.31;;;9.89;76.09
22572;BME280;11452;53.368;14.658;2023-02-17T18:57:43;100142.14;;;9.82;75.61
22572;BME280;11452;53.368;14.658;2023-02-17T19:02:48;100162.70;;;9.87;75.60
22572;BME280;11452;53.368;14.658;2023-02-17T19:07:54;100141.47;;;9.78;74.69
22572;BME280;11452;53.368;14.658;2023-02-17T19:13:00;100140.98;;;9.71;73.91
22572;BME280;11452;53.368;14.658;2023-02-17T19:18:06;100161.66;;;9.68;74.05
22572;BME280;11452;53.368;14.658;2023-02-17T19:23:11;100210.83;;;9.57;72.83
22572;BME280;11452;53.368;14.658;2023-02-17T19:28:17;100157.64;;;9.47;71.51
22572;BME280;11452;53.368;14.658;2023-02-17T19:33:23;100153.28;;;9.46;71.83
22572;BME280;11452;53.368;14.658;2023-02-17T19:38:28;100160.20;;;9.34;70.85
22572;BME280;11452;53.368;14.658;2023-02-17T19:43:34;100180.95;;;9.22;70.90
22572;BME280;11452;53.368;14.658;2023-02-17T19:48:40;100196.27;;;9.18;70.87
22572;BME280;11452;53.368;14.658;2023-02-17T19:53:46;100178.72;;;9.14;70.64
22572;BME280;11452;53.368;14.658;2023-02-17T19:58:52;100180.92;;;9.15;69.91
22572;BME280;11452;53.368;14.658;2023-02-17T20:03:59;100199.11;;;9.15;69.88
22572;BME280;11452;53.368;14.658;2023-02-17T20:09:21;100210.16;;;9.16;69.08
22572;BME280;11452;53.368;14.658;2023-02-17T20:14:23;100192.17;;;9.20;69.02
22572;BME280;11452;53.368;14.658;2023-02-17T20:19:29;100177.39;;;9.14;68.42
22572;BME280;11452;53.368;14.658;2023-02-17T20:24:36;100190.25;;;9.08;68.17
22572;BME280;11452;53.368;14.658;2023-02-17T20:29:43;100206.33;;;9.06;67.73
22572;BME280;11452;53.368;14.658;2023-02-17T20:34:49;100208.31;;;9.10;67.33
22572;BME280;11452;53.368;14.658;2023-02-17T20:39:56;100203.84;;;9.10;67.16
22572;BME280;11452;53.368;14.658;2023-02-17T20:45:01;100208.81;;;9.09;67.01
22572;BME280;11452;53.368;14.658;2023-02-17T20:50:10;100205.30;;;9.09;67.02
22572;BME280;11452;53.368;14.658;2023-02-17T20:55:15;100230.50;;;9.10;66.98
22572;BME280;11452;53.368;14.658;2023-02-17T21:00:24;100237.84;;;9.07;66.77
22572;BME280;11452;53.368;14.658;2023-02-17T21:05:29;100242.09;;;9.02;66.31
22572;BME280;11452;53.368;14.658;2023-02-17T21:10:35;100238.57;;;9.01;66.35
22572;BME280;11452;53.368;14.658;2023-02-17T21:15:42;100241.49;;;8.97;66.16
22572;BME280;11452;53.368;14.658;2023-02-17T21:20:48;100245.97;;;8.96;65.94
22572;BME280;11452;53.368;14.658;2023-02-17T21:25:54;100269.17;;;8.94;65.59
22572;BME280;11452;53.368;14.658;2023-02-17T21:30:59;100272.23;;;8.95;65.51
22572;BME280;11452;53.368;14.658;2023-02-17T21:36:08;100284.48;;;8.91;65.42
22572;BME280;11452;53.368;14.658;2023-02-17T21:41:22;100296.22;;;8.95;65.57
22572;BME280;11452;53.368;14.658;2023-02-17T21:46:23;100311.71;;;8.89;65.64
22572;BME280;11452;53.368;14.658;2023-02-17T21:51:29;100284.37;;;8.85;65.34
22572;BME280;11452;53.368;14.658;2023-02-17T21:56:35;100293.70;;;8.85;65.12
22572;BME280;11452;53.368;14.658;2023-02-17T22:01:41;100306.16;;;8.85;65.09
22572;BME280;11452;53.368;14.658;2023-02-17T22:06:47;100322.09;;;8.93;65.55
22572;BME280;11452;53.368;14.658;2023-02-17T22:11:54;100305.91;;;8.89;64.96
22572;BME280;11452;53.368;14.658;2023-02-17T22:16:59;100319.66;;;8.82;64.78
22572;BME280;11452;53.368;14.658;2023-02-17T22:22:06;100344.33;;;8.85;64.71
22572;BME280;11452;53.368;14.658;2023-02-17T22:27:12;100348.80;;;8.85;64.67
22572;BME280;11452;53.368;14.658;2023-02-17T22:32:17;100377.72;;;8.84;64.32
22572;BME280;11452;53.368;14.658;2023-02-17T22:37:23;100342.30;;;8.82;64.24
22572;BME280;11452;53.368;14.658;2023-02-17T22:42:28;100375.22;;;8.81;63.92
22572;BME280;11452;53.368;14.658;2023-02-17T22:47:34;100398.81;;;8.80;63.78
22572;BME280;11452;53.368;14.658;2023-02-17T22:52:39;100367.62;;;8.73;63.21
22572;BME280;11452;53.368;14.658;2023-02-17T22:57:45;100400.66;;;8.71;61.94
22572;BME280;11452;53.368;14.658;2023-02-17T23:02:51;100367.20;;;8.65;61.63
22572;BME280;11452;53.368;14.658;2023-02-17T23:08:01;100390.01;;;8.62;60.99
22572;BME280;11452;53.368;14.658;2023-02-17T23:13:07;100408.50;;;8.56;61.00
22572;BME280;11452;53.368;14.658;2023-02-17T23:18:15;100410.25;;;8.82;61.12
22572;BME280;11452;53.368;14.658;2023-02-17T23:23:24;100408.27;;;8.61;60.70
22572;BME280;11452;53.368;14.658;2023-02-17T23:28:30;100410.34;;;8.47;60.85
22572;BME280;11452;53.368;14.658;2023-02-17T23:33:36;100410.96;;;8.35;60.79
22572;BME280;11452;53.368;14.658;2023-02-17T23:38:41;100403.91;;;8.25;61.03
22572;BME280;11452;53.368;14.658;2023-02-17T23:43:47;100402.02;;;8.19;60.89
22572;BME280;11452;53.368;14.658;2023-02-17T23:48:53;100423.27;;;8.12;60.96
22572;BME280;11452;53.368;14.658;2023-02-17T23:53:58;100432.19;;;8.11;61.09
22572;BME280;11452;53.368;14.658;2023-02-17T23:59:04;100429.12;;;8.10;61.22
